sensor_id;sensor_type;location;lat;lon;timestamp;P1;durP1;ratioP1;P2;durP2;ratioP2
33074;SDS011;19433;51.292;6.868;2023-08-20T00:01:18;8.23;;;7.63;;
33074;SDS011;19433;51.292;6.868;2023-08-20T00:03:52;8.47;;;7.87;;
33074;SDS011;19433;51.292;6.868;2023-08-20T00:06:18;8.87;;;8.00;;
33074;SDS011;19433;51.292;6.868;2023-08-20T00:08:45;9.00;;;8.10;;
33074;SDS011;19433;51.292;6.868;2023-08-20T00:11:11;8.20;;;7.50;;
33074;SDS011;19433;51.292;6.868;2023-08-20T00:13:37;7.80;;;7.10;;
33074;SDS011;19433;51.292;6.868;2023-08-20T00:16:02;9.13;;;7.17;;
33074;SDS011;19433;51.292;6.868;2023-08-20T00:18:28;8.47;;;7.67;;
33074;SDS011;19433;51.292;6.868;2023-08-20T00:20:54;9.73;;;7.87;;
33074;SDS011;19433;51.292;6.868;2023-08-20T00:23:20;8.07;;;7.37;;
33074;SDS011;19433;51.292;6.868;2023-08-20T00:25:46;9.43;;;7.10;;
33074;SDS011;19433;51.292;6.868;2023-08-20T00:28:12;6.80;;;6.13;;
33074;SDS011;19433;51.292;6.868;2023-08-20T00:30:38;6.67;;;6.07;;
33074;SDS011;19433;51.292;6.868;2023-08-20T00:33:03;9.00;;;7.80;;
33074;SDS011;19433;51.292;6.868;2023-08-20T00:35:28;7.80;;;7.00;;
33074;SDS011;19433;51.292;6.868;2023-08-20T00:37:54;10.60;;;7.07;;
33074;SDS011;19433;51.292;6.868;2023-08-20T00:40:19;9.17;;;7.90;;
33074;SDS011;19433;51.292;6.868;2023-08-20T00:42:44;8.47;;;7.70;;
33074;SDS011;19433;51.292;6.868;2023-08-20T00:45:10;8.87;;;7.70;;
33074;SDS011;19433;51.292;6.868;2023-08-20T00:47:36;8.73;;;7.93;;
33074;SDS011;19433;51.292;6.868;2023-08-20T00:50:02;9.23;;;8.43;;
33074;SDS011;19433;51.292;6.868;2023-08-20T00:52:37;8.87;;;8.13;;
33074;SDS011;19433;51.292;6.868;2023-08-20T00:58:25;12.73;;;9.70;;
33074;SDS011;19433;51.292;6.868;2023-08-20T01:00:50;11.00;;;9.90;;
33074;SDS011;19433;51.292;6.868;2023-08-20T01:03:15;9.17;;;8.47;;
33074;SDS011;19433;51.292;6.868;2023-08-20T01:05:44;9.67;;;8.80;;
33074;SDS011;19433;51.292;6.868;2023-08-20T01:11:21;8.43;;;7.63;;
33074;SDS011;19433;51.292;6.868;2023-08-20T01:13:54;9.43;;;8.20;;
33074;SDS011;19433;51.292;6.868;2023-08-20T01:16:20;10.03;;;8.90;;
33074;SDS011;19433;51.292;6.868;2023-08-20T01:18:46;9.10;;;8.23;;
33074;SDS011;19433;51.292;6.868;2023-08-20T01:21:37;13.40;;;8.27;;
33074;SDS011;19433;51.292;6.868;2023-08-20T01:24:15;8.70;;;8.00;;
33074;SDS011;19433;51.292;6.868;2023-08-20T01:27:08;9.20;;;8.40;;
33074;SDS011;19433;51.292;6.868;2023-08-20T01:29:44;11.70;;;8.60;;
33074;SDS011;19433;51.292;6.868;2023-08-20T01:32:10;11.30;;;9.47;;
33074;SDS011;19433;51.292;6.868;2023-08-20T01:34:37;9.77;;;8.90;;
33074;SDS011;19433;51.292;6.868;2023-08-20T01:37:03;9.67;;;8.87;;
33074;SDS011;19433;51.292;6.868;2023-08-20T01:39:28;9.53;;;8.40;;
33074;SDS011;19433;51.292;6.868;2023-08-20T01:41:53;9.23;;;8.43;;
33074;SDS011;19433;51.292;6.868;2023-08-20T01:44:18;10.23;;;9.33;;
33074;SDS011;19433;51.292;6.868;2023-08-20T01:46:44;11.37;;;10.40;;
33074;SDS011;19433;51.292;6.868;2023-08-20T01:49:09;9.83;;;8.87;;
33074;SDS011;19433;51.292;6.868;2023-08-20T01:51:34;11.20;;;9.80;;
33074;SDS011;19433;51.292;6.868;2023-08-20T01:54:01;9.80;;;8.80;;
33074;SDS011;19433;51.292;6.868;2023-08-20T01:56:27;10.27;;;9.47;;
33074;SDS011;19433;51.292;6.868;2023-08-20T01:58:52;10.83;;;10.00;;
33074;SDS011;19433;51.292;6.868;2023-08-20T02:01:17;12.50;;;11.30;;
33074;SDS011;19433;51.292;6.868;2023-08-20T02:03:43;10.60;;;9.67;;
33074;SDS011;19433;51.292;6.868;2023-08-20T02:06:08;11.53;;;10.50;;
33074;SDS011;19433;51.292;6.868;2023-08-20T02:08:33;11.43;;;10.33;;
33074;SDS011;19433;51.292;6.868;2023-08-20T02:10:59;13.47;;;12.13;;
33074;SDS011;19433;51.292;6.868;2023-08-20T02:13:25;12.93;;;11.83;;
33074;SDS011;19433;51.292;6.868;2023-08-20T02:15:57;12.80;;;11.67;;
33074;SDS011;19433;51.292;6.868;2023-08-20T02:18:23;12.53;;;11.30;;
33074;SDS011;19433;51.292;6.868;2023-08-20T02:20:48;13.30;;;11.70;;
33074;SDS011;19433;51.292;6.868;2023-08-20T02:23:13;9.87;;;8.97;;
33074;SDS011;19433;51.292;6.868;2023-08-20T02:25:39;11.73;;;10.43;;
33074;SDS011;19433;51.292;6.868;2023-08-20T02:28:04;11.93;;;10.93;;
33074;SDS011;19433;51.292;6.868;2023-08-20T02:30:29;10.83;;;9.83;;
33074;SDS011;19433;51.292;6.868;2023-08-20T02:32:55;11.77;;;10.57;;
33074;SDS011;19433;51.292;6.868;2023-08-20T02:35:20;11.87;;;10.37;;
33074;SDS011;19433;51.292;6.868;2023-08-20T02:37:45;11.50;;;10.37;;
33074;SDS011;19433;51.292;6.868;2023-08-20T02:40:11;9.93;;;9.13;;
33074;SDS011;19433;51.292;6.868;2023-08-20T02:42:36;13.77;;;12.40;;
33074;SDS011;19433;51.292;6.868;2023-08-20T02:45:01;12.87;;;11.43;;
33074;SDS011;19433;51.292;6.868;2023-08-20T02:50:09;10.23;;;9.37;;
33074;SDS011;19433;51.292;6.868;2023-08-20T02:52:34;10.50;;;9.70;;
33074;SDS011;19433;51.292;6.868;2023-08-20T02:54:59;11.33;;;9.90;;
33074;SDS011;19433;51.292;6.868;2023-08-20T02:57:24;10.73;;;9.73;;
33074;SDS011;19433;51.292;6.868;2023-08-20T02:59:50;12.50;;;11.20;;
33074;SDS011;19433;51.292;6.868;2023-08-20T03:02:30;10.80;;;10.00;;
33074;SDS011;19433;51.292;6.868;2023-08-20T03:04:56;12.70;;;11.40;;
33074;SDS011;19433;51.292;6.868;2023-08-20T03:07:21;11.67;;;10.67;;
33074;SDS011;19433;51.292;6.868;2023-08-20T03:09:47;12.70;;;10.30;;
33074;SDS011;19433;51.292;6.868;2023-08-20T03:12:13;11.30;;;10.40;;
33074;SDS011;19433;51.292;6.868;2023-08-20T03:14:38;12.00;;;10.73;;
33074;SDS011;19433;51.292;6.868;2023-08-20T03:17:03;9.23;;;8.53;;
33074;SDS011;19433;51.292;6.868;2023-08-20T03:19:32;10.50;;;9.40;;
33074;SDS011;19433;51.292;6.868;2023-08-20T03:21:58;11.10;;;10.20;;
33074;SDS011;19433;51.292;6.868;2023-08-20T03:24:24;9.80;;;9.00;;
33074;SDS011;19433;51.292;6.868;2023-08-20T03:26:49;9.33;;;8.53;;
33074;SDS011;19433;51.292;6.868;2023-08-20T03:29:14;9.83;;;9.00;;
33074;SDS011;19433;51.292;6.868;2023-08-20T03:31:43;9.13;;;8.20;;
33074;SDS011;19433;51.292;6.868;2023-08-20T03:34:08;9.67;;;8.30;;
33074;SDS011;19433;51.292;6.868;2023-08-20T03:36:34;9.90;;;9.00;;
33074;SDS011;19433;51.292;6.868;2023-08-20T03:38:59;10.80;;;9.93;;
33074;SDS011;19433;51.292;6.868;2023-08-20T03:41:25;9.90;;;9.13;;
33074;SDS011;19433;51.292;6.868;2023-08-20T03:43:50;9.70;;;8.70;;
33074;SDS011;19433;51.292;6.868;2023-08-20T03:46:15;13.30;;;9.30;;
33074;SDS011;19433;51.292;6.868;2023-08-20T03:48:41;9.90;;;8.97;;
33074;SDS011;19433;51.292;6.868;2023-08-20T03:51:07;9.83;;;9.03;;
33074;SDS011;19433;51.292;6.868;2023-08-20T03:53:32;9.73;;;8.80;;
33074;SDS011;19433;51.292;6.868;2023-08-20T03:55:57;9.03;;;8.37;;
33074;SDS011;19433;51.292;6.868;2023-08-20T03:58:22;10.70;;;9.57;;
33074;SDS011;19433;51.292;6.868;2023-08-20T04:00:48;13.07;;;8.20;;
33074;SDS011;19433;51.292;6.868;2023-08-20T04:03:13;8.87;;;8.10;;
33074;SDS011;19433;51.292;6.868;2023-08-20T04:05:39;9.50;;;8.53;;
33074;SDS011;19433;51.292;6.868;2023-08-20T04:08:04;8.93;;;8.23;;
33074;SDS011;19433;51.292;6.868;2023-08-20T04:10:30;11.10;;;10.13;;
33074;SDS011;19433;51.292;6.868;2023-08-20T04:12:56;9.30;;;8.47;;
33074;SDS011;19433;51.292;6.868;2023-08-20T04:15:21;9.30;;;8.60;;
33074;SDS011;19433;51.292;6.868;2023-08-20T04:17:47;9.90;;;9.10;;
33074;SDS011;19433;51.292;6.868;2023-08-20T04:20:13;9.87;;;8.90;;
33074;SDS011;19433;51.292;6.868;2023-08-20T04:22:39;10.50;;;9.40;;
33074;SDS011;19433;51.292;6.868;2023-08-20T04:25:05;9.97;;;9.07;;
33074;SDS011;19433;51.292;6.868;2023-08-20T04:27:30;12.17;;;8.43;;
33074;SDS011;19433;51.292;6.868;2023-08-20T04:29:56;11.27;;;8.50;;
33074;SDS011;19433;51.292;6.868;2023-08-20T04:32:21;10.93;;;8.90;;
33074;SDS011;19433;51.292;6.868;2023-08-20T04:34:47;10.17;;;9.20;;
33074;SDS011;19433;51.292;6.868;2023-08-20T04:37:14;9.17;;;8.23;;
33074;SDS011;19433;51.292;6.868;2023-08-20T04:39:40;9.37;;;8.67;;
33074;SDS011;19433;51.292;6.868;2023-08-20T04:42:05;8.87;;;8.10;;
33074;SDS011;19433;51.292;6.868;2023-08-20T04:44:30;9.47;;;8.47;;
33074;SDS011;19433;51.292;6.868;2023-08-20T04:46:56;9.77;;;8.80;;
33074;SDS011;19433;51.292;6.868;2023-08-20T04:49:21;9.70;;;8.83;;
33074;SDS011;19433;51.292;6.868;2023-08-20T04:51:47;8.80;;;8.10;;
33074;SDS011;19433;51.292;6.868;2023-08-20T04:54:13;9.87;;;8.97;;
33074;SDS011;19433;51.292;6.868;2023-08-20T04:56:38;8.97;;;8.23;;
33074;SDS011;19433;51.292;6.868;2023-08-20T04:59:03;9.77;;;8.87;;
33074;SDS011;19433;51.292;6.868;2023-08-20T05:01:28;9.50;;;8.67;;
33074;SDS011;19433;51.292;6.868;2023-08-20T05:03:54;10.13;;;9.43;;
33074;SDS011;19433;51.292;6.868;2023-08-20T05:06:19;10.20;;;9.27;;
33074;SDS011;19433;51.292;6.868;2023-08-20T05:08:44;9.20;;;8.50;;
33074;SDS011;19433;51.292;6.868;2023-08-20T05:11:10;9.60;;;8.70;;
33074;SDS011;19433;51.292;6.868;2023-08-20T05:13:35;9.30;;;8.50;;
33074;SDS011;19433;51.292;6.868;2023-08-20T05:16:00;11.50;;;10.60;;
33074;SDS011;19433;51.292;6.868;2023-08-20T05:18:25;11.77;;;10.43;;
33074;SDS011;19433;51.292;6.868;2023-08-20T05:20:51;11.60;;;10.53;;
33074;SDS011;19433;51.292;6.868;2023-08-20T05:23:17;10.17;;;9.27;;
33074;SDS011;19433;51.292;6.868;2023-08-20T05:25:42;11.00;;;9.90;;
33074;SDS011;19433;51.292;6.868;2023-08-20T05:28:08;11.40;;;10.40;;
33074;SDS011;19433;51.292;6.868;2023-08-20T05:30:33;11.27;;;10.27;;
33074;SDS011;19433;51.292;6.868;2023-08-20T05:32:59;11.27;;;10.13;;
33074;SDS011;19433;51.292;6.868;2023-08-20T05:35:24;11.27;;;10.27;;
33074;SDS011;19433;51.292;6.868;2023-08-20T05:37:49;10.20;;;9.40;;
33074;SDS011;19433;51.292;6.868;2023-08-20T05:40:14;11.47;;;10.30;;
33074;SDS011;19433;51.292;6.868;2023-08-20T05:42:40;10.73;;;9.70;;
33074;SDS011;19433;51.292;6.868;2023-08-20T05:45:05;11.70;;;10.60;;
33074;SDS011;19433;51.292;6.868;2023-08-20T05:47:31;12.93;;;11.13;;
33074;SDS011;19433;51.292;6.868;2023-08-20T05:49:56;13.60;;;11.07;;
33074;SDS011;19433;51.292;6.868;2023-08-20T05:52:22;11.60;;;10.70;;
33074;SDS011;19433;51.292;6.868;2023-08-20T05:54:47;12.43;;;11.30;;
33074;SDS011;19433;51.292;6.868;2023-08-20T05:57:12;12.87;;;11.70;;
33074;SDS011;19433;51.292;6.868;2023-08-20T05:59:38;12.97;;;11.80;;
33074;SDS011;19433;51.292;6.868;2023-08-20T06:02:05;13.53;;;12.27;;
33074;SDS011;19433;51.292;6.868;2023-08-20T06:04:31;13.27;;;12.03;;
33074;SDS011;19433;51.292;6.868;2023-08-20T06:06:56;14.33;;;12.90;;
33074;SDS011;19433;51.292;6.868;2023-08-20T06:09:23;13.60;;;12.17;;
33074;SDS011;19433;51.292;6.868;2023-08-20T06:11:48;10.87;;;9.90;;
33074;SDS011;19433;51.292;6.868;2023-08-20T06:14:14;11.33;;;10.20;;
33074;SDS011;19433;51.292;6.868;2023-08-20T06:16:39;10.57;;;9.70;;
33074;SDS011;19433;51.292;6.868;2023-08-20T06:19:05;11.00;;;9.60;;
33074;SDS011;19433;51.292;6.868;2023-08-20T06:21:30;11.40;;;10.50;;
33074;SDS011;19433;51.292;6.868;2023-08-20T06:23:55;10.30;;;9.17;;
33074;SDS011;19433;51.292;6.868;2023-08-20T06:26:21;10.73;;;9.77;;
33074;SDS011;19433;51.292;6.868;2023-08-20T06:28:46;12.17;;;11.17;;
33074;SDS011;19433;51.292;6.868;2023-08-20T06:31:11;11.63;;;10.63;;
33074;SDS011;19433;51.292;6.868;2023-08-20T06:33:40;12.13;;;11.13;;
33074;SDS011;19433;51.292;6.868;2023-08-20T06:36:06;11.83;;;10.83;;
33074;SDS011;19433;51.292;6.868;2023-08-20T06:38:31;11.60;;;10.70;;
33074;SDS011;19433;51.292;6.868;2023-08-20T06:41:02;13.07;;;11.93;;
33074;SDS011;19433;51.292;6.868;2023-08-20T06:43:27;14.03;;;10.93;;
33074;SDS011;19433;51.292;6.868;2023-08-20T06:45:55;12.03;;;10.80;;
33074;SDS011;19433;51.292;6.868;2023-08-20T06:48:20;14.00;;;12.63;;
33074;SDS011;19433;51.292;6.868;2023-08-20T06:50:47;13.80;;;12.50;;
33074;SDS011;19433;51.292;6.868;2023-08-20T06:53:12;15.00;;;13.60;;
33074;SDS011;19433;51.292;6.868;2023-08-20T06:55:37;12.20;;;11.30;;
33074;SDS011;19433;51.292;6.868;2023-08-20T06:58:03;12.83;;;11.53;;
33074;SDS011;19433;51.292;6.868;2023-08-20T07:00:28;13.23;;;10.83;;
33074;SDS011;19433;51.292;6.868;2023-08-20T07:02:53;11.40;;;10.40;;
33074;SDS011;19433;51.292;6.868;2023-08-20T07:05:19;11.23;;;10.40;;
33074;SDS011;19433;51.292;6.868;2023-08-20T07:07:45;10.93;;;9.97;;
33074;SDS011;19433;51.292;6.868;2023-08-20T07:10:10;10.23;;;9.30;;
33074;SDS011;19433;51.292;6.868;2023-08-20T07:12:35;12.50;;;9.40;;
33074;SDS011;19433;51.292;6.868;2023-08-20T07:15:02;9.90;;;9.00;;
33074;SDS011;19433;51.292;6.868;2023-08-20T07:17:28;10.37;;;9.47;;
33074;SDS011;19433;51.292;6.868;2023-08-20T07:19:56;12.20;;;11.40;;
33074;SDS011;19433;51.292;6.868;2023-08-20T07:22:21;9.57;;;8.70;;
33074;SDS011;19433;51.292;6.868;2023-08-20T07:24:46;11.43;;;10.33;;
33074;SDS011;19433;51.292;6.868;2023-08-20T07:27:11;10.10;;;9.30;;
33074;SDS011;19433;51.292;6.868;2023-08-20T07:29:37;9.77;;;9.07;;
33074;SDS011;19433;51.292;6.868;2023-08-20T07:32:04;10.30;;;9.50;;
33074;SDS011;19433;51.292;6.868;2023-08-20T07:34:29;10.33;;;9.53;;
33074;SDS011;19433;51.292;6.868;2023-08-20T07:36:59;10.37;;;9.37;;
33074;SDS011;19433;51.292;6.868;2023-08-20T07:39:24;9.63;;;8.83;;
33074;SDS011;19433;51.292;6.868;2023-08-20T07:41:50;8.90;;;8.30;;
33074;SDS011;19433;51.292;6.868;2023-08-20T07:44:15;8.80;;;8.17;;
33074;SDS011;19433;51.292;6.868;2023-08-20T07:46:41;7.90;;;7.20;;
33074;SDS011;19433;51.292;6.868;2023-08-20T07:49:07;8.50;;;7.80;;
33074;SDS011;19433;51.292;6.868;2023-08-20T07:51:33;8.70;;;8.10;;
33074;SDS011;19433;51.292;6.868;2023-08-20T07:53:59;8.77;;;8.07;;
33074;SDS011;19433;51.292;6.868;2023-08-20T07:56:25;8.87;;;8.27;;
33074;SDS011;19433;51.292;6.868;2023-08-20T07:58:51;9.50;;;8.70;;
33074;SDS011;19433;51.292;6.868;2023-08-20T08:01:16;7.90;;;7.37;;
33074;SDS011;19433;51.292;6.868;2023-08-20T08:03:42;7.53;;;7.03;;
33074;SDS011;19433;51.292;6.868;2023-08-20T08:06:07;9.30;;;8.40;;
33074;SDS011;19433;51.292;6.868;2023-08-20T08:08:32;8.93;;;8.43;;
33074;SDS011;19433;51.292;6.868;2023-08-20T08:10:57;8.60;;;7.40;;
33074;SDS011;19433;51.292;6.868;2023-08-20T08:13:23;7.27;;;6.67;;
33074;SDS011;19433;51.292;6.868;2023-08-20T08:15:48;7.47;;;6.97;;
33074;SDS011;19433;51.292;6.868;2023-08-20T08:18:15;6.73;;;6.33;;
33074;SDS011;19433;51.292;6.868;2023-08-20T08:20:41;5.80;;;5.40;;
33074;SDS011;19433;51.292;6.868;2023-08-20T08:23:06;7.60;;;7.00;;
33074;SDS011;19433;51.292;6.868;2023-08-20T08:28:10;7.07;;;6.50;;
33074;SDS011;19433;51.292;6.868;2023-08-20T08:30:36;6.23;;;5.73;;
33074;SDS011;19433;51.292;6.868;2023-08-20T08:33:02;6.30;;;5.80;;
33074;SDS011;19433;51.292;6.868;2023-08-20T08:35:28;6.47;;;6.07;;
33074;SDS011;19433;51.292;6.868;2023-08-20T08:37:54;5.97;;;5.53;;
33074;SDS011;19433;51.292;6.868;2023-08-20T08:40:20;5.37;;;4.90;;
33074;SDS011;19433;51.292;6.868;2023-08-20T08:42:49;4.60;;;4.30;;
33074;SDS011;19433;51.292;6.868;2023-08-20T08:45:16;4.20;;;3.90;;
33074;SDS011;19433;51.292;6.868;2023-08-20T08:47:44;4.60;;;4.20;;
33074;SDS011;19433;51.292;6.868;2023-08-20T08:50:11;4.80;;;3.40;;
33074;SDS011;19433;51.292;6.868;2023-08-20T08:52:37;2.60;;;2.43;;
33074;SDS011;19433;51.292;6.868;2023-08-20T08:55:05;4.30;;;3.53;;
33074;SDS011;19433;51.292;6.868;2023-08-20T08:57:33;3.97;;;3.50;;
33074;SDS011;19433;51.292;6.868;2023-08-20T08:59:58;3.60;;;3.10;;
33074;SDS011;19433;51.292;6.868;2023-08-20T09:02:23;5.33;;;3.30;;
33074;SDS011;19433;51.292;6.868;2023-08-20T09:04:49;3.63;;;3.33;;
33074;SDS011;19433;51.292;6.868;2023-08-20T09:07:15;3.93;;;3.40;;
33074;SDS011;19433;51.292;6.868;2023-08-20T09:09:45;3.23;;;3.00;;
33074;SDS011;19433;51.292;6.868;2023-08-20T09:12:19;3.90;;;3.37;;
33074;SDS011;19433;51.292;6.868;2023-08-20T09:14:48;3.87;;;3.57;;
33074;SDS011;19433;51.292;6.868;2023-08-20T09:17:15;3.40;;;3.20;;
33074;SDS011;19433;51.292;6.868;2023-08-20T09:19:42;3.80;;;3.50;;
33074;SDS011;19433;51.292;6.868;2023-08-20T09:22:10;3.67;;;3.00;;
33074;SDS011;19433;51.292;6.868;2023-08-20T09:24:39;4.13;;;3.80;;
33074;SDS011;19433;51.292;6.868;2023-08-20T09:27:09;4.33;;;4.03;;
33074;SDS011;19433;51.292;6.868;2023-08-20T09:29:44;3.50;;;3.30;;
33074;SDS011;19433;51.292;6.868;2023-08-20T09:32:14;4.37;;;3.97;;
33074;SDS011;19433;51.292;6.868;2023-08-20T09:34:41;4.53;;;4.03;;
33074;SDS011;19433;51.292;6.868;2023-08-20T09:37:10;3.60;;;3.30;;
33074;SDS011;19433;51.292;6.868;2023-08-20T09:39:37;4.30;;;4.00;;
33074;SDS011;19433;51.292;6.868;2023-08-20T09:42:02;4.70;;;3.97;;
33074;SDS011;19433;51.292;6.868;2023-08-20T09:44:32;6.50;;;4.07;;
33074;SDS011;19433;51.292;6.868;2023-08-20T09:47:02;9.40;;;4.80;;
33074;SDS011;19433;51.292;6.868;2023-08-20T09:49:30;4.60;;;4.20;;
33074;SDS011;19433;51.292;6.868;2023-08-20T09:52:01;4.33;;;3.93;;
33074;SDS011;19433;51.292;6.868;2023-08-20T09:54:36;4.37;;;3.20;;
33074;SDS011;19433;51.292;6.868;2023-08-20T09:57:45;4.73;;;3.80;;
33074;SDS011;19433;51.292;6.868;2023-08-20T10:00:05;4.30;;;3.90;;
33074;SDS011;19433;51.292;6.868;2023-08-20T10:02:34;3.97;;;3.60;;
33074;SDS011;19433;51.292;6.868;2023-08-20T10:05:00;4.30;;;3.80;;
33074;SDS011;19433;51.292;6.868;2023-08-20T10:07:29;4.50;;;3.80;;
33074;SDS011;19433;51.292;6.868;2023-08-20T10:09:58;4.40;;;3.43;;
33074;SDS011;19433;51.292;6.868;2023-08-20T10:12:28;4.40;;;3.90;;
33074;SDS011;19433;51.292;6.868;2023-08-20T10:14:55;4.53;;;4.13;;
33074;SDS011;19433;51.292;6.868;2023-08-20T10:17:22;4.93;;;4.53;;
33074;SDS011;19433;51.292;6.868;2023-08-20T10:19:48;4.03;;;3.63;;
33074;SDS011;19433;51.292;6.868;2023-08-20T10:22:13;4.30;;;3.90;;
33074;SDS011;19433;51.292;6.868;2023-08-20T10:24:47;3.50;;;3.30;;
33074;SDS011;19433;51.292;6.868;2023-08-20T10:27:23;5.00;;;4.50;;
33074;SDS011;19433;51.292;6.868;2023-08-20T10:29:52;4.60;;;4.20;;
33074;SDS011;19433;51.292;6.868;2023-08-20T10:32:19;4.00;;;3.60;;
33074;SDS011;19433;51.292;6.868;2023-08-20T10:34:50;5.30;;;3.97;;
33074;SDS011;19433;51.292;6.868;2023-08-20T10:37:20;7.23;;;4.70;;
33074;SDS011;19433;51.292;6.868;2023-08-20T10:39:55;4.77;;;3.57;;
33074;SDS011;19433;51.292;6.868;2023-08-20T10:42:21;5.00;;;3.87;;
33074;SDS011;19433;51.292;6.868;2023-08-20T10:45:00;3.73;;;3.50;;
33074;SDS011;19433;51.292;6.868;2023-08-20T10:50:10;4.13;;;3.83;;
33074;SDS011;19433;51.292;6.868;2023-08-20T10:52:55;5.27;;;3.30;;
33074;SDS011;19433;51.292;6.868;2023-08-20T10:55:24;2.83;;;2.70;;
33074;SDS011;19433;51.292;6.868;2023-08-20T10:57:56;3.40;;;2.60;;
33074;SDS011;19433;51.292;6.868;2023-08-20T11:00:22;4.87;;;4.47;;
33074;SDS011;19433;51.292;6.868;2023-08-20T11:02:47;4.97;;;4.13;;
33074;SDS011;19433;51.292;6.868;2023-08-20T11:05:18;5.13;;;4.73;;
33074;SDS011;19433;51.292;6.868;2023-08-20T11:07:45;5.20;;;4.70;;
33074;SDS011;19433;51.292;6.868;2023-08-20T11:10:13;5.93;;;5.47;;
33074;SDS011;19433;51.292;6.868;2023-08-20T11:12:40;5.10;;;4.80;;
33074;SDS011;19433;51.292;6.868;2023-08-20T11:15:05;5.53;;;5.10;;
33074;SDS011;19433;51.292;6.868;2023-08-20T11:17:32;6.17;;;5.67;;
33074;SDS011;19433;51.292;6.868;2023-08-20T11:19:57;7.03;;;6.43;;
33074;SDS011;19433;51.292;6.868;2023-08-20T11:22:23;5.33;;;5.03;;
33074;SDS011;19433;51.292;6.868;2023-08-20T11:24:48;5.63;;;5.10;;
33074;SDS011;19433;51.292;6.868;2023-08-20T11:27:14;5.70;;;5.20;;
33074;SDS011;19433;51.292;6.868;2023-08-20T11:29:41;6.00;;;5.50;;
33074;SDS011;19433;51.292;6.868;2023-08-20T11:32:08;4.67;;;4.37;;
33074;SDS011;19433;51.292;6.868;2023-08-20T11:34:34;5.07;;;4.67;;
33074;SDS011;19433;51.292;6.868;2023-08-20T11:37:00;5.40;;;4.87;;
33074;SDS011;19433;51.292;6.868;2023-08-20T11:39:26;4.03;;;3.80;;
33074;SDS011;19433;51.292;6.868;2023-08-20T11:41:51;4.00;;;3.70;;
33074;SDS011;19433;51.292;6.868;2023-08-20T11:44:20;4.80;;;4.40;;
33074;SDS011;19433;51.292;6.868;2023-08-20T11:46:47;3.70;;;3.50;;
33074;SDS011;19433;51.292;6.868;2023-08-20T11:49:12;5.37;;;4.17;;
33074;SDS011;19433;51.292;6.868;2023-08-20T11:51:40;5.47;;;3.93;;
33074;SDS011;19433;51.292;6.868;2023-08-20T11:54:14;5.40;;;5.13;;
33074;SDS011;19433;51.292;6.868;2023-08-20T11:56:47;8.53;;;5.97;;
33074;SDS011;19433;51.292;6.868;2023-08-20T11:59:15;5.33;;;4.93;;
33074;SDS011;19433;51.292;6.868;2023-08-20T12:01:41;5.70;;;5.30;;
33074;SDS011;19433;51.292;6.868;2023-08-20T12:04:07;5.13;;;4.73;;
33074;SDS011;19433;51.292;6.868;2023-08-20T12:06:34;5.10;;;4.70;;
33074;SDS011;19433;51.292;6.868;2023-08-20T12:09:02;5.00;;;4.60;;
33074;SDS011;19433;51.292;6.868;2023-08-20T12:11:47;5.60;;;4.63;;
33074;SDS011;19433;51.292;6.868;2023-08-20T12:14:14;4.43;;;4.13;;
33074;SDS011;19433;51.292;6.868;2023-08-20T12:16:39;3.77;;;3.50;;
33074;SDS011;19433;51.292;6.868;2023-08-20T12:19:04;3.60;;;3.40;;
33074;SDS011;19433;51.292;6.868;2023-08-20T12:21:29;3.47;;;3.27;;
33074;SDS011;19433;51.292;6.868;2023-08-20T12:23:55;4.17;;;3.77;;
33074;SDS011;19433;51.292;6.868;2023-08-20T12:26:20;5.00;;;3.97;;
33074;SDS011;19433;51.292;6.868;2023-08-20T12:28:45;3.83;;;3.63;;
33074;SDS011;19433;51.292;6.868;2023-08-20T12:31:10;4.07;;;3.77;;
33074;SDS011;19433;51.292;6.868;2023-08-20T12:33:36;3.90;;;3.60;;
33074;SDS011;19433;51.292;6.868;2023-08-20T12:36:01;4.20;;;3.97;;
33074;SDS011;19433;51.292;6.868;2023-08-20T12:38:27;6.23;;;5.43;;
33074;SDS011;19433;51.292;6.868;2023-08-20T12:40:58;5.20;;;4.70;;
33074;SDS011;19433;51.292;6.868;2023-08-20T12:43:23;5.17;;;4.70;;
33074;SDS011;19433;51.292;6.868;2023-08-20T12:45:49;5.87;;;5.27;;
33074;SDS011;19433;51.292;6.868;2023-08-20T12:48:14;6.03;;;5.53;;
33074;SDS011;19433;51.292;6.868;2023-08-20T12:50:40;4.70;;;4.30;;
33074;SDS011;19433;51.292;6.868;2023-08-20T12:53:06;6.23;;;5.03;;
33074;SDS011;19433;51.292;6.868;2023-08-20T12:55:31;6.10;;;4.77;;
33074;SDS011;19433;51.292;6.868;2023-08-20T12:57:57;8.43;;;5.90;;
33074;SDS011;19433;51.292;6.868;2023-08-20T13:00:23;4.57;;;4.17;;
33074;SDS011;19433;51.292;6.868;2023-08-20T13:02:53;4.63;;;4.33;;
33074;SDS011;19433;51.292;6.868;2023-08-20T13:05:22;6.37;;;5.13;;
33074;SDS011;19433;51.292;6.868;2023-08-20T13:07:49;5.73;;;5.23;;
33074;SDS011;19433;51.292;6.868;2023-08-20T13:10:15;4.50;;;4.20;;
33074;SDS011;19433;51.292;6.868;2023-08-20T13:12:41;4.37;;;4.07;;
33074;SDS011;19433;51.292;6.868;2023-08-20T13:15:13;4.93;;;4.53;;
33074;SDS011;19433;51.292;6.868;2023-08-20T13:17:39;5.13;;;4.73;;
33074;SDS011;19433;51.292;6.868;2023-08-20T13:20:05;5.93;;;5.50;;
33074;SDS011;19433;51.292;6.868;2023-08-20T13:22:30;4.97;;;4.57;;
33074;SDS011;19433;51.292;6.868;2023-08-20T13:24:56;4.83;;;4.30;;
33074;SDS011;19433;51.292;6.868;2023-08-20T13:27:21;4.57;;;4.17;;
33074;SDS011;19433;51.292;6.868;2023-08-20T13:29:46;6.07;;;4.77;;
33074;SDS011;19433;51.292;6.868;2023-08-20T13:32:12;5.13;;;4.63;;
33074;SDS011;19433;51.292;6.868;2023-08-20T13:34:37;4.03;;;3.77;;
33074;SDS011;19433;51.292;6.868;2023-08-20T13:37:02;4.63;;;4.30;;
33074;SDS011;19433;51.292;6.868;2023-08-20T13:39:27;6.73;;;5.00;;
33074;SDS011;19433;51.292;6.868;2023-08-20T13:41:53;4.83;;;4.20;;
33074;SDS011;19433;51.292;6.868;2023-08-20T13:44:19;4.50;;;4.10;;
33074;SDS011;19433;51.292;6.868;2023-08-20T13:46:44;5.50;;;5.00;;
33074;SDS011;19433;51.292;6.868;2023-08-20T13:49:10;4.60;;;4.20;;
33074;SDS011;19433;51.292;6.868;2023-08-20T13:51:35;4.90;;;4.50;;
33074;SDS011;19433;51.292;6.868;2023-08-20T13:54:00;5.83;;;4.30;;
33074;SDS011;19433;51.292;6.868;2023-08-20T13:56:26;4.90;;;4.47;;
33074;SDS011;19433;51.292;6.868;2023-08-20T13:58:52;5.43;;;4.80;;
33074;SDS011;19433;51.292;6.868;2023-08-20T14:01:17;4.73;;;4.23;;
33074;SDS011;19433;51.292;6.868;2023-08-20T14:03:43;5.67;;;5.07;;
33074;SDS011;19433;51.292;6.868;2023-08-20T14:06:08;4.97;;;4.47;;
33074;SDS011;19433;51.292;6.868;2023-08-20T14:08:33;5.53;;;5.03;;
33074;SDS011;19433;51.292;6.868;2023-08-20T14:10:58;4.67;;;4.13;;
33074;SDS011;19433;51.292;6.868;2023-08-20T14:13:24;4.47;;;4.07;;
33074;SDS011;19433;51.292;6.868;2023-08-20T14:15:49;4.43;;;4.03;;
33074;SDS011;19433;51.292;6.868;2023-08-20T14:18:14;4.20;;;3.93;;
33074;SDS011;19433;51.292;6.868;2023-08-20T14:20:40;6.50;;;4.20;;
33074;SDS011;19433;51.292;6.868;2023-08-20T14:23:05;4.73;;;4.43;;
33074;SDS011;19433;51.292;6.868;2023-08-20T14:25:31;4.20;;;3.90;;
33074;SDS011;19433;51.292;6.868;2023-08-20T14:27:56;4.63;;;4.23;;
33074;SDS011;19433;51.292;6.868;2023-08-20T14:30:21;4.27;;;3.97;;
33074;SDS011;19433;51.292;6.868;2023-08-20T14:32:46;5.30;;;4.50;;
33074;SDS011;19433;51.292;6.868;2023-08-20T14:35:12;4.43;;;4.00;;
33074;SDS011;19433;51.292;6.868;2023-08-20T14:37:37;6.10;;;4.37;;
33074;SDS011;19433;51.292;6.868;2023-08-20T14:40:03;3.70;;;3.40;;
33074;SDS011;19433;51.292;6.868;2023-08-20T14:42:31;3.97;;;3.67;;
33074;SDS011;19433;51.292;6.868;2023-08-20T14:44:56;4.30;;;3.90;;
33074;SDS011;19433;51.292;6.868;2023-08-20T14:47:21;6.50;;;4.07;;
33074;SDS011;19433;51.292;6.868;2023-08-20T14:49:47;4.63;;;3.30;;
33074;SDS011;19433;51.292;6.868;2023-08-20T14:52:12;7.17;;;3.80;;